Time,TemperatureF,DewpointF,PressureIn,WindDirection,WindDirectionDegrees,WindSpeedMPH,WindSpeedGustMPH,Humidity,HourlyPrecipIn,Conditions,Clouds,dailyrainin,SoftwareType,DateUTC
2013-09-22 00:00:00,59.6,58.7,29.50,SW,222,2.0,3.0,97,0.05,,,1.22,Wunderground v.1.13,2013-09-22 04:00:00,
2013-09-22 00:30:00,59.5,58.6,29.50,SW,222,2.0,2.0,97,0.00,,,1.23,Wunderground v.1.13,2013-09-22 04:30:00,
2013-09-22 01:00:00,59.5,58.6,29.48,SW,222,2.0,2.0,97,0.00,,,0.00,Wunderground v.1.13,2013-09-22 05:00:00,
2013-09-22 02:00:00,59.5,58.6,29.47,SW,214,1.0,1.0,97,0.23,,,0.12,Wunderground v.1.13,2013-09-22 06:00:00,
2013-09-22 02:30:00,59.0,58.2,29.47,North,351,2.0,4.0,97,0.12,,,0.17,Wunderground v.1.13,2013-09-22 06:30:00,
2013-09-22 03:00:00,57.8,57.0,29.48,WSW,249,1.0,1.0,97,0.00,,,0.18,Wunderground v.1.13,2013-09-22 07:00:00,
2013-09-22 03:30:00,57.8,56.7,29.48,WSW,246,4.0,4.0,96,0.00,,,0.18,Wunderground v.1.13,2013-09-22 07:30:00,
2013-09-22 04:00:00,56.2,55.1,29.50,West,259,3.0,3.0,96,0.00,,,0.18,Wunderground v.1.13,2013-09-22 08:00:00,
2013-09-22 04:30:00,55.4,54.3,29.51,NW,320,3.0,3.0,96,0.00,,,0.18,Wunderground v.1.13,2013-09-22 08:30:00,
2013-09-22 05:00:00,54.4,52.4,29.52,NW,322,4.0,4.0,93,0.00,,,0.18,Wunderground v.1.13,2013-09-22 09:00:00,
2013-09-22 05:30:00,54.1,51.8,29.54,West,275,3.0,3.0,92,0.00,,,0.18,Wunderground v.1.13,2013-09-22 09:30:00,
2013-09-22 06:00:00,53.2,50.9,29.56,WSW,247,3.0,3.0,92,0.08,,,0.20,Wunderground v.1.13,2013-09-22 10:00:00,
2013-09-22 06:30:00,52.9,51.2,29.57,SW,232,2.0,3.0,94,0.09,,,0.23,Wunderground v.1.13,2013-09-22 10:30:00,
2013-09-22 07:00:00,52.3,50.6,29.59,WNW,283,1.0,1.0,94,0.05,,,0.27,Wunderground v.1.13,2013-09-22 11:00:00,
2013-09-22 07:30:00,51.6,49.9,29.60,WSW,242,3.0,3.0,94,0.00,,,0.28,Wunderground v.1.13,2013-09-22 11:30:00,
2013-09-22 08:00:00,51.3,49.6,29.62,WSW,254,2.0,2.0,94,0.00,,,0.28,Wunderground v.1.13,2013-09-22 12:00:00,
2013-09-22 08:30:00,50.8,48.6,29.64,West,273,3.0,3.0,92,0.00,,,0.28,Wunderground v.1.13,2013-09-22 12:30:00,
2013-09-22 09:00:00,50.5,47.4,29.65,WSW,242,3.0,3.0,89,0.00,,,0.28,Wunderground v.1.13,2013-09-22 13:00:00,
2013-09-22 09:30:00,50.8,48.3,29.67,NW,316,3.0,3.0,91,0.00,,,0.28,Wunderground v.1.13,2013-09-22 13:30:00,
2013-09-22 10:00:00,51.0,47.9,29.68,WNW,302,3.0,3.0,89,0.00,,,0.28,Wunderground v.1.13,2013-09-22 14:00:00,
2013-09-22 10:30:00,52.0,47.6,29.69,West,260,1.0,2.0,85,0.00,,,0.28,Wunderground v.1.13,2013-09-22 14:30:00,
2013-09-22 11:00:00,53.1,46.8,29.70,WNW,288,4.0,4.0,79,0.00,,,0.28,Wunderground v.1.13,2013-09-22 15:00:00,
2013-09-22 11:30:00,53.2,45.8,29.71,WSW,246,2.0,3.0,76,0.00,,,0.28,Wunderground v.1.13,2013-09-22 15:30:00,
2013-09-22 12:00:00,52.6,45.9,29.71,West,270,3.0,3.0,78,0.00,,,0.28,Wunderground v.1.13,2013-09-22 16:00:00,
2013-09-22 12:30:00,53.6,45.5,29.72,West,271,3.0,3.0,74,0.00,,,0.28,Wunderground v.1.13,2013-09-22 16:30:00,
2013-09-22 13:00:00,52.6,47.3,29.72,NW,311,2.0,2.0,82,0.00,,,0.29,Wunderground v.1.13,2013-09-22 17:00:00,
2013-09-22 13:30:00,53.6,47.6,29.73,WSW,252,1.0,1.0,80,0.00,,,0.29,Wunderground v.1.13,2013-09-22 17:30:00,
2013-09-22 14:00:00,53.6,46.9,29.73,WSW,241,2.0,4.0,78,0.00,,,0.29,Wunderground v.1.13,2013-09-22 18:00:00,
2013-09-22 14:30:00,52.2,46.5,29.74,NW,317,2.0,2.0,81,0.00,,,0.30,Wunderground v.1.13,2013-09-22 18:30:00,
2013-09-22 15:00:00,53.6,46.9,29.74,NNW,340,2.0,2.0,78,0.00,,,0.30,Wunderground v.1.13,2013-09-22 19:00:00,
2013-09-22 15:30:00,53.8,46.4,29.75,NW,313,3.0,6.0,76,0.00,,,0.30,Wunderground v.1.13,2013-09-22 19:30:00,
2013-09-22 16:00:00,53.9,44.7,29.75,West,276,2.0,2.0,71,0.00,,,0.30,Wunderground v.1.13,2013-09-22 20:00:00,
2013-09-22 16:30:00,54.2,44.6,29.75,NNW,346,4.0,7.0,70,0.00,,,0.30,Wunderground v.1.13,2013-09-22 20:30:00,
2013-09-22 17:00:00,54.1,43.4,29.77,WNW,290,2.0,2.0,67,0.00,,,0.30,Wunderground v.1.13,2013-09-22 21:00:00,
2013-09-22 17:30:00,52.9,44.5,29.78,NW,309,5.0,5.0,73,0.00,,,0.30,Wunderground v.1.13,2013-09-22 21:30:00,
2013-09-22 18:00:00,52.5,44.1,29.79,West,280,4.0,4.0,73,0.00,,,0.30,Wunderground v.1.13,2013-09-22 22:00:00,
2013-09-22 18:30:00,51.7,43.0,29.81,NNW,340,2.0,2.0,72,0.00,,,0.30,Wunderground v.1.13,2013-09-22 22:30:00,
2013-09-22 19:00:00,51.6,42.9,29.81,NW,323,1.0,1.0,72,0.00,,,0.30,Wunderground v.1.13,2013-09-22 23:00:00,
2013-09-22 19:30:00,51.1,42.7,29.82,NW,324,1.0,2.0,73,0.00,,,0.30,Wunderground v.1.13,2013-09-22 23:30:00,
2013-09-22 20:00:00,51.0,41.9,29.84,NW,306,2.0,2.0,71,0.00,,,0.30,Wunderground v.1.13,2013-09-23 00:00:00,
2013-09-22 20:30:00,50.5,41.8,29.85,NNW,333,1.0,3.0,72,0.00,,,0.30,Wunderground v.1.13,2013-09-23 00:30:00,
2013-09-22 21:00:00,50.1,42.1,29.86,NNW,336,0.0,0.0,74,0.00,,,0.30,Wunderground v.1.13,2013-09-23 01:00:00,
2013-09-22 21:30:00,49.5,42.6,29.87,NNW,336,0.0,0.0,77,0.00,,,0.30,Wunderground v.1.13,2013-09-23 01:30:00,
2013-09-22 22:00:00,49.5,41.9,29.87,NNW,337,1.0,1.0,75,0.00,,,0.30,Wunderground v.1.13,2013-09-23 02:00:00,
2013-09-22 22:30:00,49.2,41.6,29.88,NW,305,3.0,5.0,75,0.00,,,0.30,Wunderground v.1.13,2013-09-23 02:30:00,
2013-09-22 23:00:00,48.3,41.8,29.89,NW,319,2.0,3.0,78,0.00,,,0.30,Wunderground v.1.13,2013-09-23 03:00:00,
2013-09-22 23:30:00,47.9,41.7,29.89,NNW,334,2.0,3.0,79,0.00,,,0.30,Wunderground v.1.13,2013-09-23 03:30:00,